sensor_id;sensor_type;location;lat;lon;timestamp;P1;durP1;ratioP1;P2;durP2;ratioP2
14740;SDS011;7462;53.530;9.414;2022-11-14T00:00:50;34.90;;;26.20;;
14740;SDS011;7462;53.530;9.414;2022-11-14T00:03:37;35.93;;;25.53;;
14740;SDS011;7462;53.530;9.414;2022-11-14T00:06:24;37.13;;;26.57;;
14740;SDS011;7462;53.530;9.414;2022-11-14T00:09:11;37.43;;;26.33;;
14740;SDS011;7462;53.530;9.414;2022-11-14T00:11:58;32.90;;;24.93;;
14740;SDS011;7462;53.530;9.414;2022-11-14T00:14:44;36.03;;;25.87;;
14740;SDS011;7462;53.530;9.414;2022-11-14T00:17:31;35.43;;;26.47;;
14740;SDS011;7462;53.530;9.414;2022-11-14T00:20:17;36.50;;;26.47;;
14740;SDS011;7462;53.530;9.414;2022-11-14T00:23:05;39.10;;;26.93;;
14740;SDS011;7462;53.530;9.414;2022-11-14T00:25:52;35.63;;;25.20;;
14740;SDS011;7462;53.530;9.414;2022-11-14T00:28:38;36.63;;;27.07;;
14740;SDS011;7462;53.530;9.414;2022-11-14T00:31:25;39.10;;;26.53;;
14740;SDS011;7462;53.530;9.414;2022-11-14T00:34:11;37.40;;;27.40;;
14740;SDS011;7462;53.530;9.414;2022-11-14T00:36:58;37.17;;;25.63;;
14740;SDS011;7462;53.530;9.414;2022-11-14T00:39:46;38.60;;;27.27;;
14740;SDS011;7462;53.530;9.414;2022-11-14T00:42:32;41.07;;;28.37;;
14740;SDS011;7462;53.530;9.414;2022-11-14T00:45:19;37.33;;;26.87;;
14740;SDS011;7462;53.530;9.414;2022-11-14T00:48:05;42.57;;;27.60;;
14740;SDS011;7462;53.530;9.414;2022-11-14T00:50:52;35.27;;;25.57;;
14740;SDS011;7462;53.530;9.414;2022-11-14T00:53:38;38.40;;;26.53;;
14740;SDS011;7462;53.530;9.414;2022-11-14T00:56:26;41.03;;;27.80;;
14740;SDS011;7462;53.530;9.414;2022-11-14T00:59:13;40.57;;;27.40;;
14740;SDS011;7462;53.530;9.414;2022-11-14T01:02:00;39.10;;;28.43;;
14740;SDS011;7462;53.530;9.414;2022-11-14T01:04:46;42.40;;;27.37;;
14740;SDS011;7462;53.530;9.414;2022-11-14T01:07:33;38.07;;;27.33;;
14740;SDS011;7462;53.530;9.414;2022-11-14T01:10:19;40.93;;;28.80;;
14740;SDS011;7462;53.530;9.414;2022-11-14T01:13:07;38.77;;;25.60;;
14740;SDS011;7462;53.530;9.414;2022-11-14T01:15:54;37.43;;;26.73;;
14740;SDS011;7462;53.530;9.414;2022-11-14T01:18:45;40.93;;;27.50;;
14740;SDS011;7462;53.530;9.414;2022-11-14T01:21:32;41.03;;;28.03;;
14740;SDS011;7462;53.530;9.414;2022-11-14T01:24:18;38.63;;;27.73;;
14740;SDS011;7462;53.530;9.414;2022-11-14T01:27:05;38.47;;;26.77;;
14740;SDS011;7462;53.530;9.414;2022-11-14T01:29:52;37.73;;;27.17;;
14740;SDS011;7462;53.530;9.414;2022-11-14T01:32:39;38.77;;;27.40;;
14740;SDS011;7462;53.530;9.414;2022-11-14T01:35:26;42.40;;;28.23;;
14740;SDS011;7462;53.530;9.414;2022-11-14T01:38:13;37.70;;;26.33;;
14740;SDS011;7462;53.530;9.414;2022-11-14T01:41:00;41.07;;;27.43;;
14740;SDS011;7462;53.530;9.414;2022-11-14T01:43:47;41.03;;;27.50;;
14740;SDS011;7462;53.530;9.414;2022-11-14T01:46:35;39.87;;;27.23;;
14740;SDS011;7462;53.530;9.414;2022-11-14T01:49:25;40.77;;;26.53;;
14740;SDS011;7462;53.530;9.414;2022-11-14T01:52:16;41.07;;;26.90;;
14740;SDS011;7462;53.530;9.414;2022-11-14T01:55:07;38.03;;;26.53;;
14740;SDS011;7462;53.530;9.414;2022-11-14T01:57:55;38.70;;;26.37;;
14740;SDS011;7462;53.530;9.414;2022-11-14T02:00:43;39.80;;;27.47;;
14740;SDS011;7462;53.530;9.414;2022-11-14T02:03:31;40.13;;;27.83;;
14740;SDS011;7462;53.530;9.414;2022-11-14T02:06:21;40.07;;;27.40;;
14740;SDS011;7462;53.530;9.414;2022-11-14T02:09:10;40.73;;;27.47;;
14740;SDS011;7462;53.530;9.414;2022-11-14T02:11:57;40.73;;;27.27;;
14740;SDS011;7462;53.530;9.414;2022-11-14T02:14:48;40.83;;;28.03;;
14740;SDS011;7462;53.530;9.414;2022-11-14T02:17:37;39.67;;;27.17;;
14740;SDS011;7462;53.530;9.414;2022-11-14T02:20:27;40.50;;;27.53;;
14740;SDS011;7462;53.530;9.414;2022-11-14T02:23:23;39.47;;;26.93;;
14740;SDS011;7462;53.530;9.414;2022-11-14T02:26:11;36.40;;;26.37;;
14740;SDS011;7462;53.530;9.414;2022-11-14T02:28:58;36.10;;;25.63;;
14740;SDS011;7462;53.530;9.414;2022-11-14T02:31:44;39.70;;;26.90;;
14740;SDS011;7462;53.530;9.414;2022-11-14T02:34:31;37.97;;;26.27;;
14740;SDS011;7462;53.530;9.414;2022-11-14T02:37:20;37.33;;;26.07;;
14740;SDS011;7462;53.530;9.414;2022-11-14T02:40:07;37.80;;;26.40;;
14740;SDS011;7462;53.530;9.414;2022-11-14T02:42:55;36.07;;;25.80;;
14740;SDS011;7462;53.530;9.414;2022-11-14T02:45:41;40.00;;;26.87;;
14740;SDS011;7462;53.530;9.414;2022-11-14T02:48:27;40.57;;;26.03;;
14740;SDS011;7462;53.530;9.414;2022-11-14T02:51:14;39.57;;;27.30;;
14740;SDS011;7462;53.530;9.414;2022-11-14T02:54:02;36.37;;;25.10;;
14740;SDS011;7462;53.530;9.414;2022-11-14T02:56:49;38.27;;;26.33;;
14740;SDS011;7462;53.530;9.414;2022-11-14T02:59:35;39.93;;;23.87;;
14740;SDS011;7462;53.530;9.414;2022-11-14T03:02:22;38.90;;;26.37;;
14740;SDS011;7462;53.530;9.414;2022-11-14T03:05:09;40.63;;;27.13;;
14740;SDS011;7462;53.530;9.414;2022-11-14T03:07:55;39.17;;;27.03;;
14740;SDS011;7462;53.530;9.414;2022-11-14T03:10:43;40.13;;;26.20;;
14740;SDS011;7462;53.530;9.414;2022-11-14T03:13:30;40.77;;;27.03;;
14740;SDS011;7462;53.530;9.414;2022-11-14T03:16:16;38.73;;;26.73;;
14740;SDS011;7462;53.530;9.414;2022-11-14T03:19:03;35.90;;;25.23;;
14740;SDS011;7462;53.530;9.414;2022-11-14T03:21:50;39.27;;;26.47;;
14740;SDS011;7462;53.530;9.414;2022-11-14T03:24:36;41.07;;;26.57;;
14740;SDS011;7462;53.530;9.414;2022-11-14T03:27:24;40.40;;;26.77;;
14740;SDS011;7462;53.530;9.414;2022-11-14T03:30:11;38.80;;;27.00;;
14740;SDS011;7462;53.530;9.414;2022-11-14T03:32:58;39.93;;;26.73;;
14740;SDS011;7462;53.530;9.414;2022-11-14T03:35:44;44.30;;;28.30;;
14740;SDS011;7462;53.530;9.414;2022-11-14T03:38:31;40.83;;;27.27;;
14740;SDS011;7462;53.530;9.414;2022-11-14T03:41:19;45.97;;;28.30;;
14740;SDS011;7462;53.530;9.414;2022-11-14T03:44:06;40.87;;;28.00;;
14740;SDS011;7462;53.530;9.414;2022-11-14T03:46:53;43.97;;;28.23;;
14740;SDS011;7462;53.530;9.414;2022-11-14T03:49:40;40.50;;;26.50;;
14740;SDS011;7462;53.530;9.414;2022-11-14T03:52:28;39.93;;;27.03;;
14740;SDS011;7462;53.530;9.414;2022-11-14T03:55:15;42.30;;;28.47;;
14740;SDS011;7462;53.530;9.414;2022-11-14T03:58:01;42.83;;;27.60;;
14740;SDS011;7462;53.530;9.414;2022-11-14T04:00:50;43.30;;;27.93;;
14740;SDS011;7462;53.530;9.414;2022-11-14T04:03:38;41.77;;;27.13;;
14740;SDS011;7462;53.530;9.414;2022-11-14T04:06:24;43.40;;;28.37;;
14740;SDS011;7462;53.530;9.414;2022-11-14T04:09:11;45.30;;;29.10;;
14740;SDS011;7462;53.530;9.414;2022-11-14T04:11:57;40.83;;;27.63;;
14740;SDS011;7462;53.530;9.414;2022-11-14T04:14:44;41.70;;;27.17;;
14740;SDS011;7462;53.530;9.414;2022-11-14T04:17:31;41.97;;;28.60;;
14740;SDS011;7462;53.530;9.414;2022-11-14T04:20:23;42.43;;;28.33;;
14740;SDS011;7462;53.530;9.414;2022-11-14T04:23:10;42.27;;;27.13;;
14740;SDS011;7462;53.530;9.414;2022-11-14T04:25:57;45.63;;;28.10;;
14740;SDS011;7462;53.530;9.414;2022-11-14T04:28:43;40.87;;;27.47;;
14740;SDS011;7462;53.530;9.414;2022-11-14T04:31:30;43.07;;;28.27;;
14740;SDS011;7462;53.530;9.414;2022-11-14T04:34:18;47.07;;;29.13;;
14740;SDS011;7462;53.530;9.414;2022-11-14T04:37:05;46.50;;;29.13;;
14740;SDS011;7462;53.530;9.414;2022-11-14T04:39:51;42.63;;;28.57;;
14740;SDS011;7462;53.530;9.414;2022-11-14T04:42:42;42.93;;;28.30;;
14740;SDS011;7462;53.530;9.414;2022-11-14T04:45:28;42.67;;;28.73;;
14740;SDS011;7462;53.530;9.414;2022-11-14T04:48:15;44.30;;;28.90;;
14740;SDS011;7462;53.530;9.414;2022-11-14T04:51:03;49.03;;;30.93;;
14740;SDS011;7462;53.530;9.414;2022-11-14T04:53:50;48.20;;;30.20;;
14740;SDS011;7462;53.530;9.414;2022-11-14T04:56:36;42.20;;;27.57;;
14740;SDS011;7462;53.530;9.414;2022-11-14T04:59:22;47.57;;;30.33;;
14740;SDS011;7462;53.530;9.414;2022-11-14T05:02:09;46.70;;;29.33;;
14740;SDS011;7462;53.530;9.414;2022-11-14T05:04:56;46.80;;;29.57;;
14740;SDS011;7462;53.530;9.414;2022-11-14T05:07:43;47.50;;;30.40;;
14740;SDS011;7462;53.530;9.414;2022-11-14T05:10:30;46.50;;;29.43;;
14740;SDS011;7462;53.530;9.414;2022-11-14T05:13:17;46.20;;;29.57;;
14740;SDS011;7462;53.530;9.414;2022-11-14T05:16:04;47.23;;;29.73;;
14740;SDS011;7462;53.530;9.414;2022-11-14T05:18:51;48.07;;;30.47;;
14740;SDS011;7462;53.530;9.414;2022-11-14T05:21:38;48.00;;;30.70;;
14740;SDS011;7462;53.530;9.414;2022-11-14T05:24:26;47.23;;;30.00;;
14740;SDS011;7462;53.530;9.414;2022-11-14T05:27:13;43.30;;;28.63;;
14740;SDS011;7462;53.530;9.414;2022-11-14T05:29:59;45.27;;;29.97;;
14740;SDS011;7462;53.530;9.414;2022-11-14T05:32:46;51.30;;;32.00;;
14740;SDS011;7462;53.530;9.414;2022-11-14T05:35:33;47.30;;;30.07;;
14740;SDS011;7462;53.530;9.414;2022-11-14T05:38:19;44.47;;;29.87;;
14740;SDS011;7462;53.530;9.414;2022-11-14T05:41:07;46.77;;;29.57;;
14740;SDS011;7462;53.530;9.414;2022-11-14T05:43:56;45.13;;;30.53;;
14740;SDS011;7462;53.530;9.414;2022-11-14T05:46:42;45.93;;;29.20;;
14740;SDS011;7462;53.530;9.414;2022-11-14T05:49:29;51.77;;;32.03;;
14740;SDS011;7462;53.530;9.414;2022-11-14T05:52:16;43.60;;;29.87;;
14740;SDS011;7462;53.530;9.414;2022-11-14T05:55:03;46.73;;;29.90;;
14740;SDS011;7462;53.530;9.414;2022-11-14T05:57:51;46.73;;;30.73;;
14740;SDS011;7462;53.530;9.414;2022-11-14T06:00:37;46.97;;;29.70;;
14740;SDS011;7462;53.530;9.414;2022-11-14T06:03:36;44.07;;;24.80;;
14740;SDS011;7462;53.530;9.414;2022-11-14T06:06:24;50.67;;;30.53;;
14740;SDS011;7462;53.530;9.414;2022-11-14T06:09:10;47.07;;;30.33;;
14740;SDS011;7462;53.530;9.414;2022-11-14T06:11:57;43.30;;;28.00;;
14740;SDS011;7462;53.530;9.414;2022-11-14T06:14:45;47.60;;;29.70;;
14740;SDS011;7462;53.530;9.414;2022-11-14T06:17:33;44.67;;;29.37;;
14740;SDS011;7462;53.530;9.414;2022-11-14T06:20:19;45.90;;;31.13;;
14740;SDS011;7462;53.530;9.414;2022-11-14T06:23:05;47.87;;;31.63;;
14740;SDS011;7462;53.530;9.414;2022-11-14T06:25:56;48.83;;;31.17;;
14740;SDS011;7462;53.530;9.414;2022-11-14T06:28:44;45.20;;;30.17;;
14740;SDS011;7462;53.530;9.414;2022-11-14T06:31:32;47.77;;;30.50;;
14740;SDS011;7462;53.530;9.414;2022-11-14T06:34:18;50.77;;;33.07;;
14740;SDS011;7462;53.530;9.414;2022-11-14T06:37:05;49.23;;;31.50;;
14740;SDS011;7462;53.530;9.414;2022-11-14T06:39:51;49.33;;;32.33;;
14740;SDS011;7462;53.530;9.414;2022-11-14T06:42:38;49.63;;;31.90;;
14740;SDS011;7462;53.530;9.414;2022-11-14T06:45:24;47.83;;;30.60;;
14740;SDS011;7462;53.530;9.414;2022-11-14T06:48:12;49.63;;;31.80;;
14740;SDS011;7462;53.530;9.414;2022-11-14T06:50:58;47.57;;;30.10;;
14740;SDS011;7462;53.530;9.414;2022-11-14T06:53:46;49.77;;;30.90;;
14740;SDS011;7462;53.530;9.414;2022-11-14T06:56:32;50.53;;;31.00;;
14740;SDS011;7462;53.530;9.414;2022-11-14T06:59:19;52.67;;;32.40;;
14740;SDS011;7462;53.530;9.414;2022-11-14T07:02:05;50.67;;;31.67;;
14740;SDS011;7462;53.530;9.414;2022-11-14T07:04:56;50.83;;;30.87;;
14740;SDS011;7462;53.530;9.414;2022-11-14T07:07:43;54.23;;;32.43;;
14740;SDS011;7462;53.530;9.414;2022-11-14T07:10:29;51.27;;;31.90;;
14740;SDS011;7462;53.530;9.414;2022-11-14T07:13:16;46.50;;;30.53;;
14740;SDS011;7462;53.530;9.414;2022-11-14T07:16:03;52.47;;;32.23;;
14740;SDS011;7462;53.530;9.414;2022-11-14T07:18:50;51.77;;;32.60;;
14740;SDS011;7462;53.530;9.414;2022-11-14T07:21:38;50.40;;;31.40;;
14740;SDS011;7462;53.530;9.414;2022-11-14T07:24:25;48.33;;;32.10;;
14740;SDS011;7462;53.530;9.414;2022-11-14T07:27:11;46.93;;;30.60;;
14740;SDS011;7462;53.530;9.414;2022-11-14T07:29:58;45.27;;;29.87;;
14740;SDS011;7462;53.530;9.414;2022-11-14T07:32:44;43.90;;;28.83;;
14740;SDS011;7462;53.530;9.414;2022-11-14T07:35:31;46.20;;;29.07;;
14740;SDS011;7462;53.530;9.414;2022-11-14T07:38:19;46.73;;;29.93;;
14740;SDS011;7462;53.530;9.414;2022-11-14T07:41:06;46.30;;;30.40;;
14740;SDS011;7462;53.530;9.414;2022-11-14T07:43:55;48.67;;;30.47;;
14740;SDS011;7462;53.530;9.414;2022-11-14T07:46:41;49.10;;;30.47;;
14740;SDS011;7462;53.530;9.414;2022-11-14T07:49:27;45.40;;;28.63;;
14740;SDS011;7462;53.530;9.414;2022-11-14T07:52:14;47.70;;;29.83;;
14740;SDS011;7462;53.530;9.414;2022-11-14T07:55:02;47.80;;;28.87;;
14740;SDS011;7462;53.530;9.414;2022-11-14T07:57:51;48.50;;;29.37;;
14740;SDS011;7462;53.530;9.414;2022-11-14T08:00:38;46.30;;;29.53;;
14740;SDS011;7462;53.530;9.414;2022-11-14T08:03:24;45.30;;;29.17;;
14740;SDS011;7462;53.530;9.414;2022-11-14T08:06:11;47.27;;;29.60;;
14740;SDS011;7462;53.530;9.414;2022-11-14T08:08:59;48.33;;;28.70;;
14740;SDS011;7462;53.530;9.414;2022-11-14T08:11:47;47.17;;;29.23;;
14740;SDS011;7462;53.530;9.414;2022-11-14T08:14:33;45.20;;;28.73;;
14740;SDS011;7462;53.530;9.414;2022-11-14T08:17:20;45.63;;;28.20;;
14740;SDS011;7462;53.530;9.414;2022-11-14T08:20:07;48.87;;;29.47;;
14740;SDS011;7462;53.530;9.414;2022-11-14T08:23:00;51.73;;;29.97;;
14740;SDS011;7462;53.530;9.414;2022-11-14T08:25:47;46.93;;;28.67;;
14740;SDS011;7462;53.530;9.414;2022-11-14T08:28:35;47.00;;;29.10;;
14740;SDS011;7462;53.530;9.414;2022-11-14T08:31:22;43.60;;;27.97;;
14740;SDS011;7462;53.530;9.414;2022-11-14T08:34:09;44.60;;;27.43;;
14740;SDS011;7462;53.530;9.414;2022-11-14T08:36:55;47.77;;;28.90;;
14740;SDS011;7462;53.530;9.414;2022-11-14T08:39:42;46.83;;;28.20;;
14740;SDS011;7462;53.530;9.414;2022-11-14T08:42:28;44.80;;;28.13;;
14740;SDS011;7462;53.530;9.414;2022-11-14T08:45:16;49.93;;;30.70;;
14740;SDS011;7462;53.530;9.414;2022-11-14T08:48:03;44.77;;;28.20;;
14740;SDS011;7462;53.530;9.414;2022-11-14T08:50:50;44.77;;;27.80;;
14740;SDS011;7462;53.530;9.414;2022-11-14T08:53:36;48.43;;;28.67;;
14740;SDS011;7462;53.530;9.414;2022-11-14T08:56:23;46.50;;;28.23;;
14740;SDS011;7462;53.530;9.414;2022-11-14T08:59:09;44.90;;;26.87;;
14740;SDS011;7462;53.530;9.414;2022-11-14T09:01:57;46.90;;;26.80;;
14740;SDS011;7462;53.530;9.414;2022-11-14T09:04:43;46.97;;;28.00;;
14740;SDS011;7462;53.530;9.414;2022-11-14T09:07:31;46.97;;;28.40;;
14740;SDS011;7462;53.530;9.414;2022-11-14T09:10:17;45.93;;;28.27;;
14740;SDS011;7462;53.530;9.414;2022-11-14T09:13:04;46.50;;;29.37;;
14740;SDS011;7462;53.530;9.414;2022-11-14T09:15:51;49.37;;;29.93;;
14740;SDS011;7462;53.530;9.414;2022-11-14T09:18:39;49.23;;;29.80;;
14740;SDS011;7462;53.530;9.414;2022-11-14T09:21:25;48.67;;;29.33;;
14740;SDS011;7462;53.530;9.414;2022-11-14T09:24:12;49.40;;;29.80;;
14740;SDS011;7462;53.530;9.414;2022-11-14T09:26:58;46.40;;;29.33;;
14740;SDS011;7462;53.530;9.414;2022-11-14T09:29:45;52.13;;;30.57;;
14740;SDS011;7462;53.530;9.414;2022-11-14T09:32:31;47.67;;;29.83;;
14740;SDS011;7462;53.530;9.414;2022-11-14T09:35:19;49.63;;;28.23;;
14740;SDS011;7462;53.530;9.414;2022-11-14T09:38:07;51.03;;;30.60;;
14740;SDS011;7462;53.530;9.414;2022-11-14T09:40:57;50.20;;;30.80;;
14740;SDS011;7462;53.530;9.414;2022-11-14T09:47:11;56.27;;;30.50;;
14740;SDS011;7462;53.530;9.414;2022-11-14T09:50:06;50.47;;;30.40;;
14740;SDS011;7462;53.530;9.414;2022-11-14T09:53:02;50.90;;;30.73;;
14740;SDS011;7462;53.530;9.414;2022-11-14T09:55:52;49.53;;;30.07;;
14740;SDS011;7462;53.530;9.414;2022-11-14T09:58:39;45.73;;;30.20;;
14740;SDS011;7462;53.530;9.414;2022-11-14T10:01:29;48.47;;;30.17;;
14740;SDS011;7462;53.530;9.414;2022-11-14T10:04:23;48.70;;;30.90;;
14740;SDS011;7462;53.530;9.414;2022-11-14T10:07:20;54.23;;;30.83;;
14740;SDS011;7462;53.530;9.414;2022-11-14T10:10:23;50.73;;;31.33;;
14740;SDS011;7462;53.530;9.414;2022-11-14T10:13:35;46.80;;;29.23;;
14740;SDS011;7462;53.530;9.414;2022-11-14T10:16:33;45.03;;;29.43;;
14740;SDS011;7462;53.530;9.414;2022-11-14T10:19:28;50.60;;;31.20;;
14740;SDS011;7462;53.530;9.414;2022-11-14T10:22:32;57.20;;;32.30;;
14740;SDS011;7462;53.530;9.414;2022-11-14T10:25:35;50.97;;;29.27;;
14740;SDS011;7462;53.530;9.414;2022-11-14T10:28:48;49.00;;;30.40;;
14740;SDS011;7462;53.530;9.414;2022-11-14T10:31:51;46.00;;;28.30;;
14740;SDS011;7462;53.530;9.414;2022-11-14T10:34:49;50.60;;;29.40;;
14740;SDS011;7462;53.530;9.414;2022-11-14T10:37:40;45.50;;;29.53;;
14740;SDS011;7462;53.530;9.414;2022-11-14T10:40:37;46.87;;;29.23;;
14740;SDS011;7462;53.530;9.414;2022-11-14T10:43:27;48.07;;;30.60;;
14740;SDS011;7462;53.530;9.414;2022-11-14T10:46:18;44.33;;;29.20;;
14740;SDS011;7462;53.530;9.414;2022-11-14T10:49:12;47.73;;;30.13;;
14740;SDS011;7462;53.530;9.414;2022-11-14T10:52:03;47.97;;;31.23;;
14740;SDS011;7462;53.530;9.414;2022-11-14T10:54:57;45.90;;;29.27;;
14740;SDS011;7462;53.530;9.414;2022-11-14T10:57:51;46.27;;;28.47;;
14740;SDS011;7462;53.530;9.414;2022-11-14T11:00:38;48.33;;;29.60;;
14740;SDS011;7462;53.530;9.414;2022-11-14T11:03:38;45.93;;;29.37;;
14740;SDS011;7462;53.530;9.414;2022-11-14T11:06:27;46.30;;;29.03;;
14740;SDS011;7462;53.530;9.414;2022-11-14T11:09:16;42.20;;;28.27;;
14740;SDS011;7462;53.530;9.414;2022-11-14T11:12:37;42.90;;;28.60;;
14740;SDS011;7462;53.530;9.414;2022-11-14T11:15:30;42.00;;;28.33;;
14740;SDS011;7462;53.530;9.414;2022-11-14T11:18:24;47.03;;;30.23;;
14740;SDS011;7462;53.530;9.414;2022-11-14T11:21:13;43.40;;;28.30;;
14740;SDS011;7462;53.530;9.414;2022-11-14T11:24:01;43.43;;;28.80;;
14740;SDS011;7462;53.530;9.414;2022-11-14T11:26:48;42.47;;;27.67;;
14740;SDS011;7462;53.530;9.414;2022-11-14T11:30:04;44.57;;;28.13;;
14740;SDS011;7462;53.530;9.414;2022-11-14T11:32:54;42.93;;;28.23;;
14740;SDS011;7462;53.530;9.414;2022-11-14T11:35:41;44.07;;;27.97;;
14740;SDS011;7462;53.530;9.414;2022-11-14T11:38:30;40.70;;;27.13;;
14740;SDS011;7462;53.530;9.414;2022-11-14T11:41:20;39.50;;;27.40;;
14740;SDS011;7462;53.530;9.414;2022-11-14T11:44:33;42.07;;;26.50;;
14740;SDS011;7462;53.530;9.414;2022-11-14T11:47:22;40.80;;;27.63;;
14740;SDS011;7462;53.530;9.414;2022-11-14T11:50:14;40.47;;;27.23;;
14740;SDS011;7462;53.530;9.414;2022-11-14T11:53:05;38.53;;;26.93;;
14740;SDS011;7462;53.530;9.414;2022-11-14T11:56:04;39.23;;;26.97;;
14740;SDS011;7462;53.530;9.414;2022-11-14T11:58:55;41.20;;;27.10;;
14740;SDS011;7462;53.530;9.414;2022-11-14T12:01:48;42.27;;;27.50;;
14740;SDS011;7462;53.530;9.414;2022-11-14T12:04:36;42.17;;;27.23;;
14740;SDS011;7462;53.530;9.414;2022-11-14T12:07:28;39.13;;;26.60;;
14740;SDS011;7462;53.530;9.414;2022-11-14T12:10:23;41.47;;;26.87;;
14740;SDS011;7462;53.530;9.414;2022-11-14T12:16:56;38.53;;;26.03;;
14740;SDS011;7462;53.530;9.414;2022-11-14T12:20:07;38.17;;;26.37;;
14740;SDS011;7462;53.530;9.414;2022-11-14T12:26:45;41.93;;;27.30;;
14740;SDS011;7462;53.530;9.414;2022-11-14T12:29:54;34.83;;;24.63;;
14740;SDS011;7462;53.530;9.414;2022-11-14T12:32:54;39.53;;;26.77;;
14740;SDS011;7462;53.530;9.414;2022-11-14T12:35:46;42.60;;;29.87;;
14740;SDS011;7462;53.530;9.414;2022-11-14T12:38:39;40.07;;;28.13;;
14740;SDS011;7462;53.530;9.414;2022-11-14T12:41:31;36.07;;;26.17;;
14740;SDS011;7462;53.530;9.414;2022-11-14T12:44:30;38.20;;;25.97;;
14740;SDS011;7462;53.530;9.414;2022-11-14T12:47:19;38.00;;;25.43;;
14740;SDS011;7462;53.530;9.414;2022-11-14T12:53:41;38.80;;;27.07;;
14740;SDS011;7462;53.530;9.414;2022-11-14T12:59:38;37.53;;;25.33;;
14740;SDS011;7462;53.530;9.414;2022-11-14T13:05:58;34.97;;;24.70;;
14740;SDS011;7462;53.530;9.414;2022-11-14T13:08:52;33.87;;;24.97;;
14740;SDS011;7462;53.530;9.414;2022-11-14T13:11:49;37.80;;;27.57;;
14740;SDS011;7462;53.530;9.414;2022-11-14T13:14:55;35.47;;;25.07;;
14740;SDS011;7462;53.530;9.414;2022-11-14T13:18:07;38.90;;;26.97;;
14740;SDS011;7462;53.530;9.414;2022-11-14T13:21:20;39.60;;;28.03;;
14740;SDS011;7462;53.530;9.414;2022-11-14T13:27:51;34.17;;;25.13;;
14740;SDS011;7462;53.530;9.414;2022-11-14T13:31:05;37.07;;;25.37;;
14740;SDS011;7462;53.530;9.414;2022-11-14T13:37:21;33.53;;;24.37;;
14740;SDS011;7462;53.530;9.414;2022-11-14T13:40:21;34.83;;;26.17;;
14740;SDS011;7462;53.530;9.414;2022-11-14T13:43:15;37.00;;;27.13;;
14740;SDS011;7462;53.530;9.414;2022-11-14T13:46:08;35.70;;;26.33;;
14740;SDS011;7462;53.530;9.414;2022-11-14T13:49:08;36.30;;;25.73;;
14740;SDS011;7462;53.530;9.414;2022-11-14T13:52:07;35.47;;;26.43;;
14740;SDS011;7462;53.530;9.414;2022-11-14T13:54:57;36.20;;;26.17;;
14740;SDS011;7462;53.530;9.414;2022-11-14T13:57:46;37.27;;;26.50;;
14740;SDS011;7462;53.530;9.414;2022-11-14T14:00:50;33.47;;;25.73;;
14740;SDS011;7462;53.530;9.414;2022-11-14T14:03:50;38.37;;;26.27;;
14740;SDS011;7462;53.530;9.414;2022-11-14T14:06:56;34.63;;;25.23;;
14740;SDS011;7462;53.530;9.414;2022-11-14T14:09:52;34.90;;;26.10;;
14740;SDS011;7462;53.530;9.414;2022-11-14T14:12:50;33.47;;;25.17;;
14740;SDS011;7462;53.530;9.414;2022-11-14T14:15:52;32.20;;;24.63;;
14740;SDS011;7462;53.530;9.414;2022-11-14T14:18:52;37.80;;;26.80;;
14740;SDS011;7462;53.530;9.414;2022-11-14T14:21:47;37.67;;;25.60;;
14740;SDS011;7462;53.530;9.414;2022-11-14T14:24:43;30.70;;;23.00;;
14740;SDS011;7462;53.530;9.414;2022-11-14T14:27:49;32.80;;;24.07;;
14740;SDS011;7462;53.530;9.414;2022-11-14T14:33:50;35.57;;;24.23;;
14740;SDS011;7462;53.530;9.414;2022-11-14T14:36:37;33.37;;;23.87;;
14740;SDS011;7462;53.530;9.414;2022-11-14T14:39:34;34.90;;;24.37;;
14740;SDS011;7462;53.530;9.414;2022-11-14T14:42:20;33.90;;;24.30;;
14740;SDS011;7462;53.530;9.414;2022-11-14T14:45:13;36.43;;;24.97;;
14740;SDS011;7462;53.530;9.414;2022-11-14T14:48:03;36.30;;;25.23;;
14740;SDS011;7462;53.530;9.414;2022-11-14T14:50:56;31.07;;;23.70;;
14740;SDS011;7462;53.530;9.414;2022-11-14T14:53:49;33.90;;;24.13;;
14740;SDS011;7462;53.530;9.414;2022-11-14T14:56:38;35.17;;;24.60;;
14740;SDS011;7462;53.530;9.414;2022-11-14T14:59:25;38.37;;;26.67;;
14740;SDS011;7462;53.530;9.414;2022-11-14T15:02:14;36.00;;;25.67;;
14740;SDS011;7462;53.530;9.414;2022-11-14T15:05:04;37.50;;;26.00;;
14740;SDS011;7462;53.530;9.414;2022-11-14T15:07:52;34.03;;;24.27;;
14740;SDS011;7462;53.530;9.414;2022-11-14T15:10:41;33.07;;;23.90;;
14740;SDS011;7462;53.530;9.414;2022-11-14T15:13:28;31.17;;;23.37;;
14740;SDS011;7462;53.530;9.414;2022-11-14T15:16:15;35.37;;;24.87;;
14740;SDS011;7462;53.530;9.414;2022-11-14T15:19:02;33.13;;;23.20;;
14740;SDS011;7462;53.530;9.414;2022-11-14T15:22:00;31.80;;;24.03;;
14740;SDS011;7462;53.530;9.414;2022-11-14T15:25:05;31.00;;;23.47;;
14740;SDS011;7462;53.530;9.414;2022-11-14T15:28:11;31.07;;;22.57;;
14740;SDS011;7462;53.530;9.414;2022-11-14T15:31:00;31.27;;;22.73;;
14740;SDS011;7462;53.530;9.414;2022-11-14T15:34:03;34.87;;;23.77;;
14740;SDS011;7462;53.530;9.414;2022-11-14T15:40:14;32.33;;;23.23;;
14740;SDS011;7462;53.530;9.414;2022-11-14T15:46:24;33.13;;;22.73;;
14740;SDS011;7462;53.530;9.414;2022-11-14T15:49:24;36.53;;;24.43;;
14740;SDS011;7462;53.530;9.414;2022-11-14T15:52:16;34.10;;;25.13;;
14740;SDS011;7462;53.530;9.414;2022-11-14T15:55:13;33.80;;;24.27;;
14740;SDS011;7462;53.530;9.414;2022-11-14T15:58:01;36.40;;;27.37;;
14740;SDS011;7462;53.530;9.414;2022-11-14T16:01:09;33.43;;;24.53;;
14740;SDS011;7462;53.530;9.414;2022-11-14T16:04:04;36.43;;;25.50;;
14740;SDS011;7462;53.530;9.414;2022-11-14T16:06:51;33.73;;;24.10;;
14740;SDS011;7462;53.530;9.414;2022-11-14T16:09:38;35.07;;;24.77;;
14740;SDS011;7462;53.530;9.414;2022-11-14T16:12:27;36.40;;;25.60;;
14740;SDS011;7462;53.530;9.414;2022-11-14T16:15:14;31.10;;;23.03;;
14740;SDS011;7462;53.530;9.414;2022-11-14T16:18:02;36.10;;;26.37;;
14740;SDS011;7462;53.530;9.414;2022-11-14T16:20:50;35.67;;;25.90;;
14740;SDS011;7462;53.530;9.414;2022-11-14T16:23:36;36.87;;;26.20;;
14740;SDS011;7462;53.530;9.414;2022-11-14T16:26:23;34.57;;;24.70;;
14740;SDS011;7462;53.530;9.414;2022-11-14T16:29:12;34.33;;;25.00;;
14740;SDS011;7462;53.530;9.414;2022-11-14T16:31:59;32.87;;;23.57;;
14740;SDS011;7462;53.530;9.414;2022-11-14T16:34:46;39.97;;;27.07;;
14740;SDS011;7462;53.530;9.414;2022-11-14T16:37:33;34.23;;;23.93;;
14740;SDS011;7462;53.530;9.414;2022-11-14T16:40:23;33.53;;;23.73;;
14740;SDS011;7462;53.530;9.414;2022-11-14T16:43:12;36.97;;;25.17;;
14740;SDS011;7462;53.530;9.414;2022-11-14T16:46:02;34.87;;;24.80;;
14740;SDS011;7462;53.530;9.414;2022-11-14T16:48:50;36.87;;;24.90;;
14740;SDS011;7462;53.530;9.414;2022-11-14T16:51:36;37.27;;;24.97;;
14740;SDS011;7462;53.530;9.414;2022-11-14T16:54:33;35.37;;;23.17;;
14740;SDS011;7462;53.530;9.414;2022-11-14T16:57:20;34.77;;;24.70;;
14740;SDS011;7462;53.530;9.414;2022-11-14T17:00:07;34.43;;;23.93;;
14740;SDS011;7462;53.530;9.414;2022-11-14T17:02:57;35.50;;;24.83;;
14740;SDS011;7462;53.530;9.414;2022-11-14T17:05:44;37.00;;;24.67;;
14740;SDS011;7462;53.530;9.414;2022-11-14T17:08:31;35.80;;;24.90;;
14740;SDS011;7462;53.530;9.414;2022-11-14T17:11:18;35.53;;;25.77;;
14740;SDS011;7462;53.530;9.414;2022-11-14T17:14:04;38.53;;;26.70;;
14740;SDS011;7462;53.530;9.414;2022-11-14T17:16:51;35.17;;;23.97;;
14740;SDS011;7462;53.530;9.414;2022-11-14T17:19:39;36.40;;;24.90;;
14740;SDS011;7462;53.530;9.414;2022-11-14T17:22:29;37.10;;;24.60;;
14740;SDS011;7462;53.530;9.414;2022-11-14T17:25:16;32.87;;;22.97;;